Time;durP1;ratioP1;P1;durP2;ratioP2;P2;SDS_P1;SDS_P2;PMS_P1;PMS_P2;Temp;Humidity;BMP_temperature;BMP_pressure;BME280_temperature;BME280_humidity;BME280_pressure;Samples;Min_cycle;Max_cycle;Signal;HPM_P1;HPM_P2
2023/10/02 00:00:00;;;;;;;1999.90;999.90;;;;;;;11.92;100.00;96673.31;1030959;28;20284;-76
2023/10/02 00:00:31;;;;;;;1999.90;999.90;;;;;;;11.91;100.00;96670.94;1030482;28;20566;-75
2023/10/02 00:01:10;;;;;;;1999.90;999.90;;;;;;;11.90;100.00;96664.06;1032446;28;20030;-76
2023/10/02 00:01:41;;;;;;;1999.90;999.90;;;;;;;11.94;100.00;96671.25;1027117;28;20495;-75
2023/10/02 00:02:12;;;;;;;1999.90;999.90;;;;;;;11.93;100.00;96680.16;1027879;28;20686;-76
2023/10/02 00:02:42;;;;;;;1999.90;999.90;;;;;;;11.90;100.00;96670.13;1031742;28;20038;-75
2023/10/02 00:03:12;;;;;;;1999.90;999.90;;;;;;;11.94;100.00;96671.25;1030440;28;20038;-76
2023/10/02 00:03:45;;;;;;;1999.90;999.90;;;;;;;11.95;100.00;96672.03;1030692;28;20029;-77
2023/10/02 00:04:18;;;;;;;1999.90;999.90;;;;;;;11.88;100.00;96666.19;1026362;28;20034;-78
2023/10/02 00:04:49;;;;;;;74.03;67.05;;;;;;;11.84;100.00;96660.63;1022751;28;20023;-75
2023/10/02 00:05:40;;;;;;;5.95;5.75;;;;;;;11.89;100.00;96673.81;1022814;28;20496;-75
2023/10/02 00:06:11;;;;;;;8.00;7.70;;;;;;;11.83;100.00;96664.25;1026406;28;20042;-76
2023/10/02 00:06:41;;;;;;;7.53;7.22;;;;;;;11.82;100.00;96660.03;1025166;28;20687;-76
2023/10/02 00:07:22;;;;;;;8.35;7.97;;;;;;;11.87;100.00;96668.03;1026657;28;20023;-77
2023/10/02 00:07:52;;;;;;;8.00;7.70;;;;;;;11.83;100.00;96658.97;1018892;29;20477;-76
2023/10/02 00:09:05;;;;;;;9.07;8.68;;;;;;;11.89;100.00;96668.56;1024748;28;20114;-76
2023/10/02 00:09:20;;;;;;;10.85;10.35;;;;;;;11.90;100.00;96669.34;1022553;28;20071;-76
2023/10/02 00:09:51;;;;;;;8.77;8.38;;;;;;;11.88;100.00;96664.34;1030457;28;20023;-77
2023/10/02 00:10:24;;;;;;;6.35;6.10;;;;;;;11.86;100.00;96661.16;1030413;28;20058;-77
2023/10/02 00:10:55;;;;;;;6.78;6.47;;;;;;;11.82;100.00;96656.63;1026650;28;20039;-76
2023/10/02 00:11:39;;;;;;;11.38;10.88;;;;;;;11.90;100.00;96664.88;1026575;28;20035;-76
2023/10/02 00:12:13;;;;;;;26.23;24.67;;;;;;;11.90;100.00;96664.06;1022399;29;20035;-78
2023/10/02 00:12:58;;;;;;;14.65;13.95;;;;;;;11.89;100.00;96665.91;1026509;28;20027;-75
2023/10/02 00:13:30;;;;;;;19.80;18.75;;;;;;;11.91;100.00;96670.94;1026726;28;20411;-75
2023/10/02 00:14:21;;;;;;;9.30;8.90;;;;;;;11.84;100.00;96660.63;1029057;28;20042;-76
2023/10/02 00:14:53;;;;;;;9.40;9.00;;;;;;;11.86;100.00;96673.50;1022378;29;20063;-76
2023/10/02 00:15:23;;;;;;;28.52;26.92;;;;;;;11.84;100.00;96671.13;1022647;28;20270;-76
2023/10/02 00:15:54;;;;;;;17.98;17.17;;;;;;;11.83;100.00;96669.50;1025725;28;20023;-75
2023/10/02 00:16:25;;;;;;;16.83;16.02;;;;;;;11.86;100.00;96669.03;1031957;28;20022;-76
2023/10/02 00:16:59;;;;;;;17.55;16.75;;;;;;;11.83;100.00;96669.50;1030585;28;20496;-78
2023/10/02 00:17:32;;;;;;;18.85;17.95;;;;;;;11.83;100.00;96671.34;1030664;28;20058;-76
2023/10/02 00:18:03;;;;;;;29.85;28.45;;;;;;;11.81;100.00;96674.22;1031575;28;20026;-76
2023/10/02 00:18:34;;;;;;;27.50;26.20;;;;;;;11.75;100.00;96667.31;1027338;28;20058;-76
2023/10/02 00:19:18;;;;;;;24.92;23.73;;;;;;;11.79;100.00;96668.41;1026544;28;20377;-76
2023/10/02 00:19:52;;;;;;;18.83;17.92;;;;;;;11.78;100.00;96672.09;1022653;29;20402;-76
2023/10/02 00:20:23;;;;;;;16.38;15.57;;;;;;;11.76;100.00;96674.16;1024141;28;20547;-76
2023/10/02 00:21:17;;;;;;;15.85;15.15;;;;;;;11.73;100.00;96666.75;1025019;28;20302;-76
2023/10/02 00:21:45;;;;;;;28.67;27.30;;;;;;;11.70;100.00;96669.88;1030427;28;20177;-76
2023/10/02 00:23:06;;;;;;;1999.90;999.90;;;;;;;11.59;100.00;96661.09;1030636;28;20477;-76
2023/10/02 00:23:59;;;;;;;1999.90;999.90;;;;;;;11.63;100.00;96670.06;1022529;29;20090;-76
2023/10/02 00:24:27;;;;;;;1999.90;999.90;;;;;;;11.57;100.00;96671.88;1023720;28;20102;-77
2023/10/02 00:24:58;;;;;;;155.27;144.93;;;;;;;11.53;100.00;96669.97;1020547;29;20043;-77
2023/10/02 00:25:51;;;;;;;229.75;206.68;;;;;;;11.53;100.00;96665.50;1021335;29;20118;-77
2023/10/02 00:26:20;;;;;;;1999.90;999.90;;;;;;;11.45;100.00;96665.16;1022487;29;20916;-75
2023/10/02 00:26:53;;;;;;;9.45;8.90;;;;;;;11.46;100.00;96664.88;1021785;29;20074;-76
2023/10/02 00:27:24;;;;;;;0.50;0.50;;;;;;;11.42;100.00;96666.41;1024987;28;20023;-77
2023/10/02 00:27:54;;;;;;;0.40;0.40;;;;;;;11.45;100.00;96670.41;1029077;28;20266;-77
2023/10/02 00:28:30;;;;;;;0.50;0.50;;;;;;;11.46;100.00;96666.72;1026766;28;20068;-76
2023/10/02 00:29:06;;;;;;;0.50;0.50;;;;;;;11.46;100.00;96664.88;1029949;28;20029;-76
2023/10/02 00:29:51;;;;;;;0.50;0.50;;;;;;;11.44;100.00;96666.19;1030540;28;20293;-76
2023/10/02 00:30:23;;;;;;;0.60;0.60;;;;;;;11.45;100.00;96663.31;1025778;28;20535;-77
2023/10/02 00:30:53;;;;;;;5.47;4.82;;;;;;;11.43;100.00;96654.06;1029512;28;20277;-76
2023/10/02 00:31:35;;;;;;;0.60;0.60;;;;;;;11.49;100.00;96663.59;1022710;29;20287;-77
2023/10/02 00:32:10;;;;;;;0.70;0.70;;;;;;;11.40;100.00;96651.94;1022485;28;20489;-76
2023/10/02 00:32:43;;;;;;;0.60;0.60;;;;;;;11.46;100.00;96664.88;1021119;29;20266;-76
2023/10/02 00:33:14;;;;;;;0.60;0.60;;;;;;;11.44;100.00;96661.72;1022468;29;20405;-77
2023/10/02 00:33:50;;;;;;;0.60;0.60;;;;;;;11.43;100.00;96665.38;1015485;29;20376;-75
2023/10/02 00:34:30;;;;;;;0.60;0.60;;;;;;;11.43;100.00;96660.13;1022315;29;20027;-75
2023/10/02 00:35:02;;;;;;;0.80;0.80;;;;;;;11.45;100.00;96663.31;1022041;29;20791;-75
2023/10/02 00:35:49;;;;;;;0.70;0.70;;;;;;;11.46;100.00;96662.25;1014857;29;20028;-76
2023/10/02 00:36:19;;;;;;;0.60;0.60;;;;;;;11.47;100.00;96660.44;1014667;29;20705;-77
2023/10/02 00:36:50;;;;;;;0.80;0.80;;;;;;;11.46;100.00;96659.63;1018774;29;20263;-77
2023/10/02 00:37:21;;;;;;;2.05;2.00;;;;;;;11.45;100.00;96657.25;1019419;29;20563;-75
2023/10/02 00:37:51;;;;;;;16.48;15.68;;;;;;;11.41;100.00;96653.53;1018624;29;20650;-75
2023/10/02 00:38:24;;;;;;;21.45;20.45;;;;;;;11.45;100.00;96665.94;1022829;28;20028;-77
2023/10/02 00:38:54;;;;;;;26.35;25.13;;;;;;;11.45;100.00;96663.31;1026811;28;20038;-76
2023/10/02 00:39:25;;;;;;;28.88;27.52;;;;;;;11.46;100.00;96664.09;1022747;28;20278;-75
2023/10/02 00:39:55;;;;;;;21.27;20.27;;;;;;;11.47;100.00;96666.50;1022959;28;20539;-76
2023/10/02 00:40:28;;;;;;;25.38;24.17;;;;;;;11.46;100.00;96664.09;1022386;28;20035;-77
2023/10/02 00:41:01;;;;;;;20.70;19.70;;;;;;;11.45;100.00;96665.94;1022527;28;20035;-75
2023/10/02 00:41:32;;;;;;;21.25;20.25;;;;;;;11.36;100.00;96656.09;1020972;29;20301;-75
2023/10/02 00:42:55;;;;;;;21.17;20.17;;;;;;;11.41;100.00;96667.47;1018680;29;20090;-77
2023/10/02 00:43:34;;;;;;;21.23;20.23;;;;;;;11.39;100.00;96664.28;1024847;28;20270;-76
2023/10/02 00:44:06;;;;;;;21.17;20.17;;;;;;;11.39;100.00;96674.78;1022596;29;20487;-75
2023/10/02 00:44:55;;;;;;;36.67;34.97;;;;;;;11.32;100.00;96655.78;1024700;28;20073;-77
2023/10/02 00:45:44;;;;;;;43.80;41.72;;;;;;;11.35;100.00;96668.44;1018493;29;20279;-76
2023/10/02 00:46:23;;;;;;;44.40;42.30;;;;;;;11.29;100.00;96669.41;1027577;28;20041;-75
2023/10/02 00:46:53;;;;;;;33.40;31.80;;;;;;;11.26;100.00;96669.88;1024762;28;20794;-76
2023/10/02 00:47:48;;;;;;;28.95;27.63;;;;;;;11.26;100.00;96664.63;1023261;29;20274;-77
2023/10/02 00:48:25;;;;;;;29.92;28.52;;;;;;;11.21;100.00;96661.97;1019988;28;20075;-76
2023/10/02 00:48:57;;;;;;;1999.90;999.90;;;;;;;11.16;100.00;96665.28;1027417;28;20321;-76
2023/10/02 00:49:35;;;;;;;523.40;272.33;;;;;;;11.14;100.00;96666.59;1023258;29;20046;-77
2023/10/02 00:50:16;;;;;;;1999.90;999.90;;;;;;;11.12;100.00;96664.19;1019369;29;20276;-76
2023/10/02 00:50:50;;;;;;;1999.90;999.90;;;;;;;11.08;100.00;96663.88;1023271;29;20274;-76
2023/10/02 00:51:21;;;;;;;1999.90;999.90;;;;;;;11.07;100.00;96656.25;1017075;29;20263;-77
2023/10/02 00:52:00;;;;;;;1999.90;999.90;;;;;;;11.10;100.00;96666.28;1019192;29;20309;-77
2023/10/02 00:52:31;;;;;;;1999.90;999.90;;;;;;;11.04;100.00;96660.16;1023357;29;20101;-76
2023/10/02 00:53:03;;;;;;;1999.90;999.90;;;;;;;11.04;100.00;96652.28;1019279;29;20271;-76
2023/10/02 00:53:38;;;;;;;1999.90;999.90;;;;;;;11.01;100.00;96657.22;1018457;29;20027;-75
2023/10/02 00:54:23;;;;;;;1999.90;999.90;;;;;;;11.02;100.00;96659.59;1020163;29;20821;-76
2023/10/02 00:54:54;;;;;;;15.43;14.68;;;;;;;11.04;100.00;96660.16;1021547;29;20748;-76
2023/10/02 00:55:26;;;;;;;5.45;5.25;;;;;;;11.01;100.00;96646.72;1018049;29;20275;-76
2023/10/02 00:55:57;;;;;;;7.43;7.13;;;;;;;10.97;100.00;96656.91;1025934;28;20027;-76
2023/10/02 00:56:30;;;;;;;8.45;8.05;;;;;;;11.07;100.00;96662.31;1021325;29;20774;-77
2023/10/02 00:57:16;;;;;;;8.20;7.82;;;;;;;11.06;100.00;96652.03;1019251;29;20035;-76
2023/10/02 00:57:51;;;;;;;12.13;11.60;;;;;;;11.02;100.00;96648.31;1019381;29;20316;-76
2023/10/02 00:58:24;;;;;;;16.25;15.48;;;;;;;11.06;100.00;96660.69;1023145;29;20795;-76
2023/10/02 00:59:00;;;;;;;12.40;11.82;;;;;;;11.05;100.00;96648.63;1019312;29;20372;-76
2023/10/02 00:59:32;;;;;;;12.77;12.18;;;;;;;11.05;100.00;96653.88;1019412;29;20376;-77
2023/10/02 01:00:17;;;;;;;42.88;34.65;;;;;;;11.04;100.00;96657.53;1022988;29;20267;-77
2023/10/02 01:00:50;;;;;;;15.38;14.68;;;;;;;11.02;100.00;96658.81;1015380;29;20689;-76
2023/10/02 01:01:24;;;;;;;15.27;14.57;;;;;;;10.99;100.00;96656.66;1019795;29;20665;-76
2023/10/02 01:01:56;;;;;;;15.90;15.20;;;;;;;11.03;100.00;96660.38;1027241;28;20799;-74
2023/10/02 01:02:27;;;;;;;14.70;14.00;;;;;;;11.03;100.00;96661.22;1027324;28;20282;-77
2023/10/02 01:03:01;;;;;;;24.92;23.70;;;;;;;11.00;100.00;96660.88;1024461;28;20369;-76
2023/10/02 01:04:06;;;;;;;17.83;17.02;;;;;;;11.02;100.00;96659.59;1015388;29;20343;-75
2023/10/02 01:04:28;;;;;;;17.65;16.85;;;;;;;10.91;100.00;96655.25;1021701;28;20780;-76
2023/10/02 01:04:58;;;;;;;26.70;25.45;;;;;;;10.94;100.00;96648.72;1018604;29;20056;-76
2023/10/02 01:05:41;;;;;;;34.47;32.88;;;;;;;10.95;100.00;96656.34;1023252;29;20668;-76
2023/10/02 01:06:12;;;;;;;32.47;30.98;;;;;;;10.93;100.00;96655.81;1022963;29;20026;-76
2023/10/02 01:07:33;;;;;;;1999.90;999.90;;;;;;;11.03;100.00;96663.03;1023649;28;20028;-77
2023/10/02 01:08:04;;;;;;;49.05;46.63;;;;;;;11.02;100.00;96658.81;1023473;29;20051;-76
2023/10/02 01:08:49;;;;;;;1999.90;999.90;;;;;;;11.04;100.00;96668.03;1023201;29;20090;-77
2023/10/02 01:09:19;;;;;;;43.03;40.08;;;;;;;11.08;100.00;96666.53;1027411;28;20202;-77
2023/10/02 01:10:09;;;;;;;92.80;85.75;;;;;;;11.12;100.00;96666.03;1027428;28;20297;-77
2023/10/02 01:10:40;;;;;;;2.10;2.10;;;;;;;11.14;100.00;96661.34;1027126;28;20027;-76
2023/10/02 01:11:13;;;;;;;2.25;2.22;;;;;;;11.16;100.00;96659.25;1023142;29;20424;-76
2023/10/02 01:11:45;;;;;;;2.10;2.10;;;;;;;11.22;100.00;96668.78;1031245;28;20511;-76
2023/10/02 01:12:18;;;;;;;2.50;2.40;;;;;;;11.22;100.00;96674.06;1031505;28;20751;-77
2023/10/02 01:12:53;;;;;;;2.50;2.40;;;;;;;11.18;100.00;96662.44;1031235;28;20267;-76
2023/10/02 01:13:27;;;;;;;2.50;2.40;;;;;;;11.22;100.00;96671.41;1032726;28;20277;-76
2023/10/02 01:13:58;;;;;;;2.95;2.85;;;;;;;11.20;100.00;96660.34;1023240;29;20262;-76
2023/10/02 01:15:26;;;;;;;2.88;2.78;;;;;;;11.30;100.00;96663.09;1027117;28;20290;-77
2023/10/02 01:15:57;;;;;;;3.70;3.60;;;;;;;11.24;100.00;96654.38;1023321;29;20350;-76
2023/10/02 01:16:27;;;;;;;3.78;3.67;;;;;;;11.32;100.00;96661.03;1019285;29;20280;-76
2023/10/02 01:16:58;;;;;;;7.25;6.93;;;;;;;11.33;100.00;96665.25;1022982;29;20019;-76
2023/10/02 01:17:29;;;;;;;4.57;4.38;;;;;;;11.33;100.00;96658.19;1019382;29;20636;-76
2023/10/02 01:18:50;;;;;;;3.90;3.80;;;;;;;11.33;100.00;96658.19;1021891;29;20023;-78
2023/10/02 01:19:21;;;;;;;3.70;3.60;;;;;;;11.36;100.00;96663.97;1020889;29;20083;-76
2023/10/02 01:19:57;;;;;;;12.27;11.63;;;;;;;11.32;100.00;96653.94;1019172;29;20367;-75
2023/10/02 01:20:35;;;;;;;4.20;4.10;;;;;;;11.32;100.00;96664.47;1023259;29;20030;-76
2023/10/02 01:21:11;;;;;;;4.60;4.40;;;;;;;11.33;100.00;96665.25;1019136;28;20382;-76
2023/10/02 01:21:42;;;;;;;4.95;4.75;;;;;;;11.36;100.00;96662.13;1023239;28;20357;-74
2023/10/02 01:22:26;;;;;;;5.88;5.68;;;;;;;11.39;100.00;96664.28;1022634;29;20282;-76
2023/10/02 01:23:11;;;;;;;6.65;6.35;;;;;;;11.43;100.00;96665.38;1023087;29;20286;-76
2023/10/02 01:24:38;;;;;;;6.10;5.90;;;;;;;11.48;100.00;96665.44;1021794;28;20289;-74
2023/10/02 01:25:14;;;;;;;6.13;5.93;;;;;;;11.48;100.00;96664.66;1023388;28;20285;-76
2023/10/02 01:25:46;;;;;;;6.50;6.20;;;;;;;11.51;100.00;96666.78;1027060;28;20095;-76
2023/10/02 01:26:18;;;;;;;5.75;5.55;;;;;;;11.49;100.00;96659.13;1015013;29;20294;-76
2023/10/02 01:26:50;;;;;;;6.85;6.55;;;;;;;11.46;100.00;96656.22;1019061;29;20028;-77
2023/10/02 01:27:22;;;;;;;6.15;5.95;;;;;;;11.48;100.00;96656.78;1030852;28;20287;-78
2023/10/02 01:27:55;;;;;;;6.30;6.05;;;;;;;11.53;100.00;96673.38;1027137;28;20034;-77
2023/10/02 01:28:51;;;;;;;8.00;7.70;;;;;;;11.55;100.00;96658.16;1023132;29;20667;-76
2023/10/02 01:29:22;;;;;;;9.02;8.63;;;;;;;11.52;100.00;96658.66;1018949;29;20059;-76
2023/10/02 01:30:14;;;;;;;8.77;8.38;;;;;;;11.48;100.00;96652.31;1019242;29;20717;-77
2023/10/02 01:30:45;;;;;;;128.88;92.20;;;;;;;11.54;100.00;96659.22;1029278;28;20274;-77
2023/10/02 01:31:42;;;;;;;1999.90;999.90;;;;;;;11.57;100.00;96657.94;1023119;29;20035;-77
2023/10/02 01:32:13;;;;;;;1999.90;999.90;;;;;;;11.56;100.00;96656.31;1027051;28;20046;-76
2023/10/02 01:33:45;;;;;;;1999.90;999.90;;;;;;;11.51;100.00;96657.06;1025943;28;20281;-76
2023/10/02 01:35:19;;;;;;;1999.90;999.90;;;;;;;11.46;100.00;96654.38;1031129;28;20797;-76
2023/10/02 01:35:54;;;;;;;1999.90;999.90;;;;;;;11.48;100.00;96657.56;1030426;28;20375;-79
2023/10/02 01:36:28;;;;;;;1999.90;999.90;;;;;;;11.49;100.00;96664.41;1030691;28;20022;-77
2023/10/02 01:37:32;;;;;;;1999.90;999.90;;;;;;;11.42;100.00;96649.84;1031173;28;20262;-76
2023/10/02 01:37:55;;;;;;;1999.90;999.90;;;;;;;11.45;100.00;96654.63;1026745;28;20289;-75
2023/10/02 01:38:29;;;;;;;1999.90;999.90;;;;;;;11.44;100.00;96651.22;1027138;28;20254;-77
2023/10/02 01:39:10;;;;;;;1999.90;999.90;;;;;;;11.44;100.00;96651.22;1027073;28;20293;-74
2023/10/02 01:39:41;;;;;;;1999.90;999.90;;;;;;;11.39;100.00;96647.72;1022983;29;20298;-77
2023/10/02 01:40:33;;;;;;;1999.90;999.90;;;;;;;11.43;100.00;96652.22;1022977;29;20295;-75
2023/10/02 01:41:04;;;;;;;1999.90;999.90;;;;;;;11.37;100.00;96644.53;1018940;29;20063;-77
2023/10/02 01:41:35;;;;;;;1999.90;999.90;;;;;;;11.33;100.00;96644.22;1019059;29;20388;-76
2023/10/02 01:42:06;;;;;;;1999.90;999.90;;;;;;;11.40;100.00;96646.66;1026055;28;20484;-76
2023/10/02 01:42:38;;;;;;;1999.90;999.90;;;;;;;11.38;100.00;96651.41;1026859;28;20029;-78
2023/10/02 01:43:14;;;;;;;1999.90;999.90;;;;;;;11.39;100.00;96648.50;1019041;29;20019;-76
2023/10/02 01:43:45;;;;;;;1999.90;999.90;;;;;;;11.35;100.00;96647.41;1023056;29;20294;-76
2023/10/02 01:44:20;;;;;;;1999.90;999.90;;;;;;;11.37;100.00;96652.41;1022927;29;20811;-77
2023/10/02 01:44:55;;;;;;;1999.90;999.90;;;;;;;11.32;100.00;96647.91;1022758;29;20539;-76
2023/10/02 01:45:34;;;;;;;1999.90;999.90;;;;;;;11.37;100.00;96650.59;1028447;28;20478;-77
2023/10/02 01:46:06;;;;;;;1999.90;999.90;;;;;;;11.38;100.00;96652.19;1022824;28;20029;-75
2023/10/02 01:46:49;;;;;;;1999.90;999.90;;;;;;;11.41;100.00;96648.28;1021727;29;20544;-76
2023/10/02 01:47:20;;;;;;;1999.90;999.90;;;;;;;11.38;100.00;96652.19;1026845;28;20254;-77
2023/10/02 01:47:50;;;;;;;1999.90;999.90;;;;;;;11.36;100.00;96649.00;1026769;28;20027;-76
2023/10/02 01:49:24;;;;;;;1999.90;999.90;;;;;;;11.35;100.00;96647.41;1027210;28;20069;-76
2023/10/02 01:50:00;;;;;;;1999.90;999.90;;;;;;;11.39;100.00;96643.25;1023235;28;20843;-76
2023/10/02 01:50:30;;;;;;;1999.90;999.90;;;;;;;11.36;100.00;96646.38;1028227;28;20627;-76
2023/10/02 01:51:15;;;;;;;39.53;37.17;;;;;;;11.33;100.00;96650.31;1027049;28;20266;-76
2023/10/02 01:51:50;;;;;;;40.35;38.38;;;;;;;11.37;100.00;96650.59;1033963;28;20030;-77
2023/10/02 01:52:20;;;;;;;1999.90;999.90;;;;;;;11.36;100.00;96643.75;1030975;28;20775;-77
2023/10/02 01:52:51;;;;;;;1999.90;999.90;;;;;;;11.35;100.00;96642.16;1029429;28;20270;-76
2023/10/02 01:53:30;;;;;;;85.65;81.45;;;;;;;11.31;100.00;96638.44;1027154;28;20026;-76
2023/10/02 01:54:15;;;;;;;51.50;49.05;;;;;;;11.32;100.00;96645.28;1023059;28;20019;-77
2023/10/02 01:54:51;;;;;;;69.25;65.95;;;;;;;11.41;100.00;96651.69;1014470;29;20513;-76
2023/10/02 01:55:29;;;;;;;50.15;47.67;;;;;;;11.39;100.00;96642.47;1011327;29;20013;-76
2023/10/02 01:56:10;;;;;;;25.85;24.65;;;;;;;11.38;100.00;96646.94;1014724;29;20599;-76
2023/10/02 01:56:45;;;;;;;23.25;22.15;;;;;;;11.26;100.00;96638.38;1022177;29;20263;-76
2023/10/02 01:57:24;;;;;;;22.35;21.25;;;;;;;11.31;100.00;96651.56;1019234;29;20028;-78
2023/10/02 01:57:55;;;;;;;19.17;18.27;;;;;;;11.27;100.00;96647.84;1022583;28;20608;-77
2023/10/02 01:58:26;;;;;;;19.08;18.17;;;;;;;11.27;100.00;96653.09;1028490;28;20258;-76
2023/10/02 01:59:10;;;;;;;17.75;16.95;;;;;;;11.23;100.00;96654.63;1029726;28;20034;-76
2023/10/02 01:59:45;;;;;;;21.70;20.70;;;;;;;11.23;100.00;96654.63;1031039;28;20045;-76
2023/10/02 02:00:16;;;;;;;27.75;26.45;;;;;;;11.20;100.00;96652.47;1027124;28;20266;-77
2023/10/02 02:00:46;;;;;;;29.35;27.98;;;;;;;11.19;100.00;96649.06;1029449;28;20030;-76
2023/10/02 02:01:20;;;;;;;27.45;26.15;;;;;;;11.19;100.00;96648.25;1031169;28;20458;-77
2023/10/02 02:01:52;;;;;;;25.60;24.40;;;;;;;11.16;100.00;96640.88;1027636;28;20085;-77
2023/10/02 02:02:23;;;;;;;22.30;21.20;;;;;;;11.22;100.00;96653.03;1027150;28;20278;-78
2023/10/02 02:03:14;;;;;;;17.88;17.08;;;;;;;11.16;100.00;96644.28;1023828;28;20319;-77
2023/10/02 02:03:50;;;;;;;18.13;17.23;;;;;;;11.24;100.00;96650.97;1026536;28;20274;-77
2023/10/02 02:04:27;;;;;;;18.63;17.73;;;;;;;11.17;100.00;96640.63;1018925;29;20881;-77
2023/10/02 02:04:58;;;;;;;89.72;85.32;;;;;;;11.22;100.00;96650.41;1018713;29;20621;-77
2023/10/02 02:05:30;;;;;;;86.00;81.30;;;;;;;11.19;100.00;96648.25;1019343;29;20268;-77
2023/10/02 02:06:08;;;;;;;82.57;78.18;;;;;;;11.20;100.00;96648.03;1020395;29;20275;-77
2023/10/02 02:06:51;;;;;;;16.40;15.60;;;;;;;11.15;100.00;96649.78;1021056;29;20654;-77
2023/10/02 02:07:21;;;;;;;16.70;15.90;;;;;;;11.14;100.00;96640.34;1025150;28;20274;-77
2023/10/02 02:07:53;;;;;;;19.17;18.27;;;;;;;11.14;100.00;96650.84;1030104;28;20651;-76
2023/10/02 02:08:24;;;;;;;19.83;18.92;;;;;;;11.13;100.00;96651.84;1029000;28;20113;-77
2023/10/02 02:08:58;;;;;;;20.52;19.52;;;;;;;11.06;100.00;96642.31;1028914;28;20274;-75
2023/10/02 02:09:36;;;;;;;18.70;17.80;;;;;;;11.14;100.00;96649.00;1027198;28;20114;-77
2023/10/02 02:10:07;;;;;;;20.60;19.63;;;;;;;11.16;100.00;96651.38;1020524;29;20274;-77
2023/10/02 02:10:39;;;;;;;22.40;21.33;;;;;;;11.13;100.00;96643.97;1020636;29;20271;-75
2023/10/02 02:11:16;;;;;;;21.38;20.38;;;;;;;11.05;100.00;96638.09;1022883;29;20286;-77
2023/10/02 02:12:05;;;;;;;23.50;22.40;;;;;;;11.11;100.00;96649.47;1022664;29;20254;-76
2023/10/02 02:12:44;;;;;;;25.88;24.67;;;;;;;11.08;100.00;96650.75;1022896;29;20278;-76
2023/10/02 02:13:16;;;;;;;26.15;24.95;;;;;;;11.08;100.00;96653.38;1027306;28;20320;-77
2023/10/02 02:13:48;;;;;;;30.80;29.08;;;;;;;11.08;100.00;96647.34;1030939;28;20087;-76
2023/10/02 02:14:19;;;;;;;25.90;24.70;;;;;;;11.08;100.00;96648.13;1028520;28;20301;-77
2023/10/02 02:14:50;;;;;;;24.83;23.63;;;;;;;11.09;100.00;96646.28;1031098;28;20345;-76
2023/10/02 02:15:20;;;;;;;25.90;24.70;;;;;;;11.09;100.00;96647.09;1030762;28;20265;-76
2023/10/02 02:15:51;;;;;;;25.50;24.30;;;;;;;11.10;100.00;96650.53;1023137;28;20034;-76
2023/10/02 02:16:25;;;;;;;26.17;24.42;;;;;;;11.05;100.00;96647.81;1027212;28;20023;-78
2023/10/02 02:16:55;;;;;;;24.08;22.98;;;;;;;10.96;100.00;96634.31;1020542;28;20270;-77
2023/10/02 02:17:27;;;;;;;25.77;24.58;;;;;;;10.98;100.00;96637.50;1019532;29;20291;-78
2023/10/02 02:17:57;;;;;;;27.30;26.00;;;;;;;11.01;100.00;96646.72;1015322;29;20083;-78
2023/10/02 02:18:28;;;;;;;29.45;28.05;;;;;;;11.04;100.00;96647.03;1020115;28;20260;-78
2023/10/02 02:18:58;;;;;;;29.98;28.58;;;;;;;11.02;100.00;96643.06;1018746;29;20019;-76
2023/10/02 02:19:29;;;;;;;30.80;29.40;;;;;;;11.01;100.00;96644.88;1019105;29;20024;-76
2023/10/02 02:20:10;;;;;;;30.58;29.17;;;;;;;11.00;100.00;96648.56;1019264;28;20012;-76
2023/10/02 02:20:44;;;;;;;32.55;31.05;;;;;;;10.99;100.00;96646.94;1032724;28;20045;-76
2023/10/02 02:21:15;;;;;;;27.83;26.42;;;;;;;10.91;100.00;96634.25;1031036;28;20270;-78
2023/10/02 02:21:46;;;;;;;25.02;23.83;;;;;;;10.95;100.00;96648.47;1022556;28;20314;-76
2023/10/02 02:22:23;;;;;;;23.77;22.67;;;;;;;10.87;100.00;96632.38;1018677;29;20772;-78
2023/10/02 02:22:55;;;;;;;22.73;21.63;;;;;;;10.79;100.00;96630.91;1022322;29;20031;-76
2023/10/02 02:23:28;;;;;;;528.45;277.10;;;;;;;10.87;100.00;96640.25;1024162;28;20852;-75
2023/10/02 02:24:07;;;;;;;549.50;295.55;;;;;;;10.85;100.00;96651.75;1021040;29;20808;-76
2023/10/02 02:24:38;;;;;;;1999.90;999.90;;;;;;;10.84;100.00;96654.63;1026503;28;20798;-76
2023/10/02 02:25:08;;;;;;;1999.90;999.90;;;;;;;10.81;100.00;96644.63;1027264;28;20766;-76
2023/10/02 02:25:39;;;;;;;1999.90;999.90;;;;;;;10.79;100.00;96646.69;1030285;28;20281;-75
2023/10/02 02:26:09;;;;;;;37.60;35.67;;;;;;;10.77;100.00;96646.13;1031327;28;20396;-76
2023/10/02 02:26:40;;;;;;;1999.90;999.90;;;;;;;10.72;100.00;96644.22;1027416;28;20031;-77
2023/10/02 02:27:11;;;;;;;1999.90;999.90;;;;;;;10.76;100.00;96649.78;1023259;29;20039;-76
2023/10/02 02:27:46;;;;;;;1999.90;999.90;;;;;;;10.72;100.00;96644.22;1019208;29;20588;-76
2023/10/02 02:28:17;;;;;;;1999.90;999.90;;;;;;;10.73;100.00;96645.81;1020141;29;20555;-77
2023/10/02 02:28:51;;;;;;;1999.90;999.90;;;;;;;10.71;100.00;96642.63;1025882;28;20306;-76
2023/10/02 02:29:23;;;;;;;1999.90;999.90;;;;;;;10.67;100.00;96640.75;1031294;28;20281;-77
2023/10/02 02:29:56;;;;;;;1999.90;999.90;;;;;;;10.72;100.00;96640.81;1027274;28;20270;-75
2023/10/02 02:30:27;;;;;;;1999.90;999.90;;;;;;;10.73;100.00;96639.75;1024278;28;20758;-76
2023/10/02 02:30:58;;;;;;;1999.90;999.90;;;;;;;10.69;100.00;96638.66;1024202;28;20270;-77
2023/10/02 02:31:29;;;;;;;1999.90;999.90;;;;;;;10.70;100.00;96642.88;1024306;28;20263;-76
2023/10/02 02:32:00;;;;;;;1999.90;999.90;;;;;;;10.71;100.00;96641.84;1023172;29;20031;-74
2023/10/02 02:32:36;;;;;;;1999.90;999.90;;;;;;;10.69;100.00;96644.69;1023303;29;20251;-76
2023/10/02 02:33:07;;;;;;;1999.90;999.90;;;;;;;10.67;100.00;96640.75;1023382;29;20105;-76
2023/10/02 02:33:38;;;;;;;1999.90;999.90;;;;;;;10.65;100.00;96634.94;1021035;28;20271;-76
2023/10/02 02:34:14;;;;;;;1999.90;999.90;;;;;;;10.67;100.00;96641.53;1018675;29;20649;-77
2023/10/02 02:34:49;;;;;;;1999.90;999.90;;;;;;;10.66;100.00;96647.00;1011124;29;20162;-76
2023/10/02 02:35:21;;;;;;;1999.90;999.90;;;;;;;10.65;100.00;96648.06;1015527;29;20264;-78
2023/10/02 02:35:51;;;;;;;1999.90;999.90;;;;;;;10.62;100.00;96644.84;1019185;29;20271;-76
2023/10/02 02:36:22;;;;;;;1999.90;999.90;;;;;;;10.62;100.00;96638.81;1021608;28;20276;-76
2023/10/02 02:36:54;;;;;;;1999.90;999.90;;;;;;;10.57;100.00;96642.19;1023838;28;20485;-76
2023/10/02 02:37:28;;;;;;;1999.90;999.90;;;;;;;10.58;100.00;96640.34;1019647;29;20024;-76
2023/10/02 02:37:59;;;;;;;1999.90;999.90;;;;;;;10.57;100.00;96647.41;1015388;29;20820;-76
2023/10/02 02:38:29;;;;;;;1999.90;999.90;;;;;;;10.58;100.00;96646.38;1015305;29;20279;-75
2023/10/02 02:39:15;;;;;;;1999.90;999.90;;;;;;;10.54;100.00;96640.03;1017544;28;20027;-75
2023/10/02 02:39:46;;;;;;;1.02;1.02;;;;;;;10.56;100.00;96643.22;1026385;28;20022;-75
2023/10/02 02:40:22;;;;;;;14.30;13.45;;;;;;;10.59;100.00;96647.97;1019255;29;20387;-77
2023/10/02 02:41:05;;;;;;;1.00;1.00;;;;;;;10.62;100.00;96644.84;1015598;29;20028;-76
2023/10/02 02:41:35;;;;;;;5.13;4.93;;;;;;;10.59;100.00;96636.66;1023370;29;20258;-76
2023/10/02 02:42:09;;;;;;;0.60;0.60;;;;;;;10.65;100.00;96640.19;1024114;28;20295;-76
2023/10/02 02:42:41;;;;;;;0.80;0.80;;;;;;;10.62;100.00;96644.84;1023249;28;20031;-76
2023/10/02 02:43:19;;;;;;;0.90;0.90;;;;;;;10.62;100.00;96647.47;1025677;28;20994;-78
2023/10/02 02:43:50;;;;;;;0.90;0.90;;;;;;;10.62;100.00;96644.84;1027457;28;20259;-75
2023/10/02 02:44:36;;;;;;;1.10;1.10;;;;;;;10.63;100.00;96648.31;1020745;28;20280;-77
2023/10/02 02:45:24;;;;;;;1.20;1.20;;;;;;;10.64;100.00;96649.09;1026480;28;20257;-74
2023/10/02 02:45:55;;;;;;;3.50;3.40;;;;;;;10.59;100.00;96644.53;1023727;28;20277;-76
2023/10/02 02:46:29;;;;;;;1.20;1.20;;;;;;;10.56;100.00;96651.09;1027111;28;20277;-76